McCarran International Airport
KLAS : now visible

Airfield :











YOU CAN JOIN US ON...

 
LOGIN :

Register | Disclaimer

   EN    FR    IT 

 









Legend :    VFR   Marginal VFR   IFR   Intensive IFR   Very Intensive IFR
Visi :
Ceiling :
>= 8 km
>= 3000ft
5 to 8 km
1000 to 3000 ft
1500m to 5 km
500 to 1000 ft
800 to 1500m
200 to 500 ft
< 800m
< 200 ft
Symbols :   Thunderstorms  Fog  Heavy snow  Heavy precipitations  Wind > 20 kt






- Airport Elevation : 2181 ft
- IATA code : LAS


KLAS - McCarran International

CURRENT METAR :
  • 172156Z VRB03KT 10SM FEW120 SCT250 21/M08 A2995 RMK AO2 SLP130 T02111083

EXPIRED METARs :
  • 172056Z 06007KT 020V090 10SM FEW120 SCT250 21/M06 A2997 RMK AO2 SLP135 T02061056 58022
  • 171956Z 07004KT 10SM SCT250 19/M05 A3000 RMK AO2 SLP146 T01891050

TAF KLAS
Valid from the 17 at 21:00 until the 19 at 00:00 UTC


172052Z 1721/1824 06007KT P6SM FEW150 SCT250
FM180300 28007KT P6SM BKN250
FM181700 03008KT P6SM BKN250



MET'MAP, your aeronautical weather chart ! - Copyright ORBIFLY December 2007 - Disclaimer

ORBIFLY MET'MAP TEAM :

Programming & Development : Alexandra Zaïnal
Concept & original design : Baudouin d'Aumeries
Assistance for programming : Marc-Olivier Méhu
Technical & hardware support : Manuel Goepfert

Contact : metmap@orbifly.com




SOURCES & CREDITS :

   NOAA       Earth
Advisory